De Sui — BSFU — position and weather

sailwx.info

Track history (hours):
 
Tides and Currents Weather Stations Pressure Air Temp Water Temp Dewpoint Dewpoint Depression Visibility Wind Speed Wind Dir Waves Ship Positions

De Sui

Last reported at 2015-Mar-16 15:05 UTC. Time now 2015-May-04 16:05 UTC.
Position N 22°52' E 116°48'.
Warning: this ship's position is 49 days out of date.

Length 65 m; draft 5 m.

Type: Tug. MMSI: 413070000.

Date/timePositionNaut miles runAvg speedWind from/ knotsBaromVisibWave heightAir tempDewpointWater temp
2015-Mar-16 15:05N 22°52' E 116°48'64 3.4
2015-Mar-15 20:18N 23°31' E 117°43'6 2.8
2015-Mar-15 18:10N 23°36' E 117°47'2 3.4
2015-Mar-15 17:29N 23°38' E 117°48'4 3.7
2015-Mar-15 16:27N 23°41' E 117°50'3 3.9
2015-Mar-15 15:33N 23°44' E 117°52'25 4.2
2015-Mar-15 09:30N 24°03' E 118°11'4 3.6
2015-Mar-15 08:31N 24°05' E 118°14'3 3.4
2015-Mar-15 07:33N 24°08' E 118°16'4 3.4
2015-Mar-15 06:23N 24°10' E 118°19'3 3.5
2015-Mar-15 05:29N 24°12' E 118°22'3 3.7
2015-Mar-15 04:32N 24°14' E 118°26'12 4.0
2015-Mar-15 01:25N 24°21' E 118°37'3 4.0
2015-Mar-15 00:33N 24°23' E 118°40'6 3.0
2015-Mar-14 22:33N 24°27' E 118°44'5 3.9
2015-Mar-14 21:22N 24°30' E 118°48'4 3.7
2015-Mar-14 20:21N 24°32' E 118°52'2 3.0
2015-Mar-14 19:31N 24°34' E 118°54'3 2.7
2015-Mar-14 18:33N 24°35' E 118°56'3 2.7
2015-Mar-14 17:33N 24°37' E 118°58'3 2.8
2015-Mar-14 16:30N 24°39' E 119°01'3 2.9
2015-Mar-14 15:33N 24°40' E 119°04'3 3.2
2015-Mar-14 14:33N 24°41' E 119°07'3 3.4
2015-Mar-14 13:33N 24°43' E 119°11'4 3.6
2015-Mar-14 12:20N 24°45' E 119°15'3 3.8
2015-Mar-14 11:26N 24°47' E 119°18'4 3.9
2015-Mar-14 10:32N 24°49' E 119°21'4 3.9
2015-Mar-14 09:33N 24°52' E 119°24'  
2015-Mar-10 11:17N 29°34' E 122°13'2 2.7
2015-Mar-10 10:32N 29°35' E 122°11'5 3.7
2015-Mar-10 09:13N 29°37' E 122°05'3 4.3
2015-Mar-10 08:33N 29°38' E 122°03'5 4.8
2015-Mar-10 07:29N 29°40' E 121°57'4 3.4
2015-Mar-10 06:27N 29°40' E 121°53'0 0.1
2015-Mar-10 05:32N 29°40' E 121°53'0 0.1
2015-Mar-10 04:30N 29°40' E 121°53'3 3.7
2015-Mar-10 03:33N 29°38' E 121°50'  
Track history (hours):
 
Tides and Currents Weather Stations Pressure Air Temp Water Temp Dewpoint Dewpoint Depression Visibility Wind Speed Wind Dir Waves Ship Positions

De Sui

Last reported at 2015-Mar-16 15:05 UTC. Time now 2015-May-04 16:05 UTC.
Position N 22°52' E 116°48'.
Warning: this ship's position is 49 days out of date.

Length 65 m; draft 5 m.

Type: Tug. MMSI: 413070000.

Date/timePositionNaut miles runAvg speedWind from/ knotsBaromVisibWave heightAir tempDewpointWater temp
2015-Mar-16 15:05N 22°52' E 116°48'64 3.4
2015-Mar-15 20:18N 23°31' E 117°43'6 2.8
2015-Mar-15 18:10N 23°36' E 117°47'2 3.4
2015-Mar-15 17:29N 23°38' E 117°48'4 3.7
2015-Mar-15 16:27N 23°41' E 117°50'3 3.9
2015-Mar-15 15:33N 23°44' E 117°52'25 4.2
2015-Mar-15 09:30N 24°03' E 118°11'4 3.6
2015-Mar-15 08:31N 24°05' E 118°14'3 3.4
2015-Mar-15 07:33N 24°08' E 118°16'4 3.4
2015-Mar-15 06:23N 24°10' E 118°19'3 3.5
2015-Mar-15 05:29N 24°12' E 118°22'3 3.7
2015-Mar-15 04:32N 24°14' E 118°26'12 4.0
2015-Mar-15 01:25N 24°21' E 118°37'3 4.0
2015-Mar-15 00:33N 24°23' E 118°40'6 3.0
2015-Mar-14 22:33N 24°27' E 118°44'5 3.9
2015-Mar-14 21:22N 24°30' E 118°48'4 3.7
2015-Mar-14 20:21N 24°32' E 118°52'2 3.0
2015-Mar-14 19:31N 24°34' E 118°54'3 2.7
2015-Mar-14 18:33N 24°35' E 118°56'3 2.7
2015-Mar-14 17:33N 24°37' E 118°58'3 2.8
2015-Mar-14 16:30N 24°39' E 119°01'3 2.9
2015-Mar-14 15:33N 24°40' E 119°04'3 3.2
2015-Mar-14 14:33N 24°41' E 119°07'3 3.4
2015-Mar-14 13:33N 24°43' E 119°11'4 3.6
2015-Mar-14 12:20N 24°45' E 119°15'3 3.8
2015-Mar-14 11:26N 24°47' E 119°18'4 3.9
2015-Mar-14 10:32N 24°49' E 119°21'4 3.9
2015-Mar-14 09:33N 24°52' E 119°24'  
2015-Mar-10 11:17N 29°34' E 122°13'2 2.7
2015-Mar-10 10:32N 29°35' E 122°11'5 3.7
2015-Mar-10 09:13N 29°37' E 122°05'3 4.3
2015-Mar-10 08:33N 29°38' E 122°03'5 4.8
2015-Mar-10 07:29N 29°40' E 121°57'4 3.4
2015-Mar-10 06:27N 29°40' E 121°53'0 0.1
2015-Mar-10 05:32N 29°40' E 121°53'0 0.1
2015-Mar-10 04:30N 29°40' E 121°53'3 3.7
2015-Mar-10 03:33N 29°38' E 121°50'  

Dump ship's entire track history